sensor_id;sensor_type;location;lat;lon;timestamp;temperature;humidity
44117;DHT22;29781;49.480;8.512;2023-08-07T00:00:21;14.50;99.90
44117;DHT22;29781;49.480;8.512;2023-08-07T00:02:46;14.50;99.90
44117;DHT22;29781;49.480;8.512;2023-08-07T00:05:12;14.50;99.90
44117;DHT22;29781;49.480;8.512;2023-08-07T00:07:37;14.50;99.90
44117;DHT22;29781;49.480;8.512;2023-08-07T00:10:03;14.50;99.90
44117;DHT22;29781;49.480;8.512;2023-08-07T00:12:29;14.40;99.90
44117;DHT22;29781;49.480;8.512;2023-08-07T00:14:54;14.40;99.90
44117;DHT22;29781;49.480;8.512;2023-08-07T00:17:20;14.40;99.90
44117;DHT22;29781;49.480;8.512;2023-08-07T00:19:45;14.50;99.90
44117;DHT22;29781;49.480;8.512;2023-08-07T00:22:11;14.50;99.90
44117;DHT22;29781;49.480;8.512;2023-08-07T00:24:36;14.50;99.90
44117;DHT22;29781;49.480;8.512;2023-08-07T00:27:02;14.60;99.90
44117;DHT22;29781;49.480;8.512;2023-08-07T00:29:28;14.50;99.90
44117;DHT22;29781;49.480;8.512;2023-08-07T00:31:53;14.40;99.90
44117;DHT22;29781;49.480;8.512;2023-08-07T00:34:19;14.50;99.90
44117;DHT22;29781;49.480;8.512;2023-08-07T00:36:45;14.40;99.90
44117;DHT22;29781;49.480;8.512;2023-08-07T00:39:10;14.30;99.90
44117;DHT22;29781;49.480;8.512;2023-08-07T00:41:36;14.30;99.90
44117;DHT22;29781;49.480;8.512;2023-08-07T00:44:01;14.40;99.90
44117;DHT22;29781;49.480;8.512;2023-08-07T00:46:28;14.40;99.90
44117;DHT22;29781;49.480;8.512;2023-08-07T00:48:54;14.40;99.90
44117;DHT22;29781;49.480;8.512;2023-08-07T00:51:20;14.50;99.90
44117;DHT22;29781;49.480;8.512;2023-08-07T00:53:48;14.50;99.90
44117;DHT22;29781;49.480;8.512;2023-08-07T00:56:14;14.50;99.90
44117;DHT22;29781;49.480;8.512;2023-08-07T00:58:39;14.40;99.90
44117;DHT22;29781;49.480;8.512;2023-08-07T01:01:06;14.40;99.90
44117;DHT22;29781;49.480;8.512;2023-08-07T01:03:32;14.50;99.90
44117;DHT22;29781;49.480;8.512;2023-08-07T01:05:57;14.60;99.90
44117;DHT22;29781;49.480;8.512;2023-08-07T01:08:26;14.50;99.90
44117;DHT22;29781;49.480;8.512;2023-08-07T01:13:46;14.40;99.90
44117;DHT22;29781;49.480;8.512;2023-08-07T01:16:21;14.30;99.90
44117;DHT22;29781;49.480;8.512;2023-08-07T01:18:48;14.30;99.90
44117;DHT22;29781;49.480;8.512;2023-08-07T01:21:19;14.30;99.90
44117;DHT22;29781;49.480;8.512;2023-08-07T01:23:46;14.40;99.90
44117;DHT22;29781;49.480;8.512;2023-08-07T01:26:12;14.30;99.90
44117;DHT22;29781;49.480;8.512;2023-08-07T01:28:42;14.30;99.90
44117;DHT22;29781;49.480;8.512;2023-08-07T01:31:14;14.30;99.90
44117;DHT22;29781;49.480;8.512;2023-08-07T01:33:52;14.30;99.90
44117;DHT22;29781;49.480;8.512;2023-08-07T01:36:19;14.40;99.90
44117;DHT22;29781;49.480;8.512;2023-08-07T01:38:48;14.30;99.90
44117;DHT22;29781;49.480;8.512;2023-08-07T01:41:15;14.20;99.90
44117;DHT22;29781;49.480;8.512;2023-08-07T01:43:40;14.30;99.90
44117;DHT22;29781;49.480;8.512;2023-08-07T01:46:06;14.30;99.90
44117;DHT22;29781;49.480;8.512;2023-08-07T01:48:32;14.40;99.90
44117;DHT22;29781;49.480;8.512;2023-08-07T01:50:57;14.30;99.90
44117;DHT22;29781;49.480;8.512;2023-08-07T01:53:23;14.20;99.90
44117;DHT22;29781;49.480;8.512;2023-08-07T01:55:48;14.30;99.90
44117;DHT22;29781;49.480;8.512;2023-08-07T01:58:14;14.30;99.90
44117;DHT22;29781;49.480;8.512;2023-08-07T02:00:39;14.20;99.90
44117;DHT22;29781;49.480;8.512;2023-08-07T02:03:05;14.30;99.90
44117;DHT22;29781;49.480;8.512;2023-08-07T02:05:30;14.30;99.90
44117;DHT22;29781;49.480;8.512;2023-08-07T02:07:55;14.20;99.90
44117;DHT22;29781;49.480;8.512;2023-08-07T02:10:22;14.30;99.90
44117;DHT22;29781;49.480;8.512;2023-08-07T02:12:48;14.30;99.90
44117;DHT22;29781;49.480;8.512;2023-08-07T02:15:13;14.30;99.90
44117;DHT22;29781;49.480;8.512;2023-08-07T02:17:39;14.30;99.90
44117;DHT22;29781;49.480;8.512;2023-08-07T02:20:06;14.20;99.90
44117;DHT22;29781;49.480;8.512;2023-08-07T02:22:32;14.30;99.90
44117;DHT22;29781;49.480;8.512;2023-08-07T02:24:57;14.30;99.90
44117;DHT22;29781;49.480;8.512;2023-08-07T02:27:23;14.20;99.90
44117;DHT22;29781;49.480;8.512;2023-08-07T02:29:48;14.20;99.90
44117;DHT22;29781;49.480;8.512;2023-08-07T02:32:16;14.20;99.90
44117;DHT22;29781;49.480;8.512;2023-08-07T02:34:41;14.20;99.90
44117;DHT22;29781;49.480;8.512;2023-08-07T02:37:07;14.20;99.90
44117;DHT22;29781;49.480;8.512;2023-08-07T02:39:32;14.20;99.90
44117;DHT22;29781;49.480;8.512;2023-08-07T02:41:58;14.20;99.90
44117;DHT22;29781;49.480;8.512;2023-08-07T02:44:23;14.10;99.90
44117;DHT22;29781;49.480;8.512;2023-08-07T02:46:49;14.10;99.90
44117;DHT22;29781;49.480;8.512;2023-08-07T02:49:14;14.20;99.90
44117;DHT22;29781;49.480;8.512;2023-08-07T02:51:40;14.20;99.90
44117;DHT22;29781;49.480;8.512;2023-08-07T02:54:05;14.20;99.90
44117;DHT22;29781;49.480;8.512;2023-08-07T02:56:31;14.10;99.90
44117;DHT22;29781;49.480;8.512;2023-08-07T02:58:58;14.20;99.90
44117;DHT22;29781;49.480;8.512;2023-08-07T03:01:24;14.10;99.90
44117;DHT22;29781;49.480;8.512;2023-08-07T03:03:50;14.20;99.90
44117;DHT22;29781;49.480;8.512;2023-08-07T03:06:16;14.10;99.90
44117;DHT22;29781;49.480;8.512;2023-08-07T03:08:41;14.10;99.90
44117;DHT22;29781;49.480;8.512;2023-08-07T03:11:08;14.10;99.90
44117;DHT22;29781;49.480;8.512;2023-08-07T03:13:33;14.20;99.90
44117;DHT22;29781;49.480;8.512;2023-08-07T03:16:03;14.20;99.90
44117;DHT22;29781;49.480;8.512;2023-08-07T03:18:29;14.10;99.90
44117;DHT22;29781;49.480;8.512;2023-08-07T03:20:55;14.10;99.90
44117;DHT22;29781;49.480;8.512;2023-08-07T03:23:22;14.20;99.90
44117;DHT22;29781;49.480;8.512;2023-08-07T03:25:47;14.20;99.90
44117;DHT22;29781;49.480;8.512;2023-08-07T03:28:13;14.10;99.90
44117;DHT22;29781;49.480;8.512;2023-08-07T03:30:38;14.10;99.90
44117;DHT22;29781;49.480;8.512;2023-08-07T03:33:04;14.20;99.90
44117;DHT22;29781;49.480;8.512;2023-08-07T03:35:29;14.20;99.90
44117;DHT22;29781;49.480;8.512;2023-08-07T03:37:55;14.10;99.90
44117;DHT22;29781;49.480;8.512;2023-08-07T03:40:20;14.10;99.90
44117;DHT22;29781;49.480;8.512;2023-08-07T03:42:46;14.10;99.90
44117;DHT22;29781;49.480;8.512;2023-08-07T03:45:11;14.10;99.90
44117;DHT22;29781;49.480;8.512;2023-08-07T03:47:37;14.10;99.90
44117;DHT22;29781;49.480;8.512;2023-08-07T03:50:03;14.00;99.90
44117;DHT22;29781;49.480;8.512;2023-08-07T03:52:28;14.00;99.90
44117;DHT22;29781;49.480;8.512;2023-08-07T03:54:54;14.00;99.90
44117;DHT22;29781;49.480;8.512;2023-08-07T03:57:19;14.00;99.90
44117;DHT22;29781;49.480;8.512;2023-08-07T03:59:45;13.80;99.90
44117;DHT22;29781;49.480;8.512;2023-08-07T04:02:10;13.90;99.90
44117;DHT22;29781;49.480;8.512;2023-08-07T04:04:36;13.90;99.90
44117;DHT22;29781;49.480;8.512;2023-08-07T04:07:01;13.90;99.90
44117;DHT22;29781;49.480;8.512;2023-08-07T04:09:27;13.80;99.90
44117;DHT22;29781;49.480;8.512;2023-08-07T04:11:52;13.90;99.90
44117;DHT22;29781;49.480;8.512;2023-08-07T04:14:18;13.90;99.90
44117;DHT22;29781;49.480;8.512;2023-08-07T04:16:43;13.90;99.90
44117;DHT22;29781;49.480;8.512;2023-08-07T04:19:09;13.80;99.90
44117;DHT22;29781;49.480;8.512;2023-08-07T04:21:34;13.80;99.90
44117;DHT22;29781;49.480;8.512;2023-08-07T04:24:00;13.70;99.90
44117;DHT22;29781;49.480;8.512;2023-08-07T04:26:26;13.70;99.90
44117;DHT22;29781;49.480;8.512;2023-08-07T04:28:52;13.70;99.90
44117;DHT22;29781;49.480;8.512;2023-08-07T04:31:17;13.60;99.90
44117;DHT22;29781;49.480;8.512;2023-08-07T04:33:44;13.70;99.90
44117;DHT22;29781;49.480;8.512;2023-08-07T04:36:09;13.70;99.90
44117;DHT22;29781;49.480;8.512;2023-08-07T04:38:35;13.70;99.90
44117;DHT22;29781;49.480;8.512;2023-08-07T04:41:00;13.60;99.90
44117;DHT22;29781;49.480;8.512;2023-08-07T04:43:26;13.70;99.90
44117;DHT22;29781;49.480;8.512;2023-08-07T04:45:53;13.70;99.90
44117;DHT22;29781;49.480;8.512;2023-08-07T04:48:19;13.80;99.90
44117;DHT22;29781;49.480;8.512;2023-08-07T04:50:46;13.80;99.90
44117;DHT22;29781;49.480;8.512;2023-08-07T04:53:11;13.80;99.90
44117;DHT22;29781;49.480;8.512;2023-08-07T04:55:37;13.70;99.90
44117;DHT22;29781;49.480;8.512;2023-08-07T04:58:03;13.90;99.90
44117;DHT22;29781;49.480;8.512;2023-08-07T05:00:29;13.80;99.90
44117;DHT22;29781;49.480;8.512;2023-08-07T05:02:54;13.90;99.90
44117;DHT22;29781;49.480;8.512;2023-08-07T05:05:20;13.80;99.90
44117;DHT22;29781;49.480;8.512;2023-08-07T05:07:47;14.00;99.90
44117;DHT22;29781;49.480;8.512;2023-08-07T05:10:13;14.00;99.90
44117;DHT22;29781;49.480;8.512;2023-08-07T05:12:38;13.90;99.90
44117;DHT22;29781;49.480;8.512;2023-08-07T05:15:04;13.90;99.90
44117;DHT22;29781;49.480;8.512;2023-08-07T05:17:31;14.00;99.90
44117;DHT22;29781;49.480;8.512;2023-08-07T05:19:57;13.90;99.90
44117;DHT22;29781;49.480;8.512;2023-08-07T05:22:22;14.00;99.90
44117;DHT22;29781;49.480;8.512;2023-08-07T05:24:48;14.00;99.90
44117;DHT22;29781;49.480;8.512;2023-08-07T05:27:14;14.00;99.90
44117;DHT22;29781;49.480;8.512;2023-08-07T05:29:39;13.90;99.90
44117;DHT22;29781;49.480;8.512;2023-08-07T05:32:12;13.90;99.90
44117;DHT22;29781;49.480;8.512;2023-08-07T05:34:38;13.90;99.90
44117;DHT22;29781;49.480;8.512;2023-08-07T05:37:04;13.90;99.90
44117;DHT22;29781;49.480;8.512;2023-08-07T05:39:29;14.00;99.90
44117;DHT22;29781;49.480;8.512;2023-08-07T05:41:55;14.00;99.90
44117;DHT22;29781;49.480;8.512;2023-08-07T05:44:26;14.00;99.90
44117;DHT22;29781;49.480;8.512;2023-08-07T05:46:51;14.00;99.90
44117;DHT22;29781;49.480;8.512;2023-08-07T05:49:17;14.00;99.90
44117;DHT22;29781;49.480;8.512;2023-08-07T05:51:43;14.00;99.90
44117;DHT22;29781;49.480;8.512;2023-08-07T05:54:08;14.00;99.90
44117;DHT22;29781;49.480;8.512;2023-08-07T05:56:34;14.00;99.90
44117;DHT22;29781;49.480;8.512;2023-08-07T05:58:59;14.10;99.90
44117;DHT22;29781;49.480;8.512;2023-08-07T06:01:25;14.10;99.90
44117;DHT22;29781;49.480;8.512;2023-08-07T06:03:59;14.00;99.90
44117;DHT22;29781;49.480;8.512;2023-08-07T06:06:25;14.10;99.90
44117;DHT22;29781;49.480;8.512;2023-08-07T06:08:55;14.10;99.90
44117;DHT22;29781;49.480;8.512;2023-08-07T06:11:21;14.10;99.90
44117;DHT22;29781;49.480;8.512;2023-08-07T06:13:47;14.20;99.90
44117;DHT22;29781;49.480;8.512;2023-08-07T06:16:12;14.20;99.90
44117;DHT22;29781;49.480;8.512;2023-08-07T06:18:38;14.30;99.90
44117;DHT22;29781;49.480;8.512;2023-08-07T06:21:04;14.40;99.90
44117;DHT22;29781;49.480;8.512;2023-08-07T06:23:35;14.40;99.90
44117;DHT22;29781;49.480;8.512;2023-08-07T06:26:01;14.30;99.90
44117;DHT22;29781;49.480;8.512;2023-08-07T06:28:30;14.20;99.90
44117;DHT22;29781;49.480;8.512;2023-08-07T06:31:05;14.20;99.90
44117;DHT22;29781;49.480;8.512;2023-08-07T06:33:31;14.20;99.90
44117;DHT22;29781;49.480;8.512;2023-08-07T06:36:00;14.20;99.90
44117;DHT22;29781;49.480;8.512;2023-08-07T06:38:26;14.30;99.90
44117;DHT22;29781;49.480;8.512;2023-08-07T06:40:52;14.30;99.90
44117;DHT22;29781;49.480;8.512;2023-08-07T06:43:17;14.30;99.90
44117;DHT22;29781;49.480;8.512;2023-08-07T06:45:46;14.30;99.90
44117;DHT22;29781;49.480;8.512;2023-08-07T06:48:12;14.30;99.90
44117;DHT22;29781;49.480;8.512;2023-08-07T06:50:37;14.20;99.90
44117;DHT22;29781;49.480;8.512;2023-08-07T06:53:03;14.20;99.90
44117;DHT22;29781;49.480;8.512;2023-08-07T06:55:28;14.30;99.90
44117;DHT22;29781;49.480;8.512;2023-08-07T06:57:54;14.30;99.90
44117;DHT22;29781;49.480;8.512;2023-08-07T07:00:19;14.30;99.90
44117;DHT22;29781;49.480;8.512;2023-08-07T07:02:45;14.40;99.90
44117;DHT22;29781;49.480;8.512;2023-08-07T07:05:10;14.40;99.90
44117;DHT22;29781;49.480;8.512;2023-08-07T07:07:36;14.50;99.90
44117;DHT22;29781;49.480;8.512;2023-08-07T07:10:01;14.40;99.90
44117;DHT22;29781;49.480;8.512;2023-08-07T07:12:27;14.50;99.90
44117;DHT22;29781;49.480;8.512;2023-08-07T07:14:53;14.50;99.90
44117;DHT22;29781;49.480;8.512;2023-08-07T07:17:18;14.50;99.90
44117;DHT22;29781;49.480;8.512;2023-08-07T07:19:44;14.50;99.90
44117;DHT22;29781;49.480;8.512;2023-08-07T07:22:09;14.50;99.90
44117;DHT22;29781;49.480;8.512;2023-08-07T07:24:35;14.40;99.90
44117;DHT22;29781;49.480;8.512;2023-08-07T07:27:00;14.40;99.90
44117;DHT22;29781;49.480;8.512;2023-08-07T07:29:26;14.30;99.90
44117;DHT22;29781;49.480;8.512;2023-08-07T07:31:51;14.30;99.90
44117;DHT22;29781;49.480;8.512;2023-08-07T07:34:19;14.30;99.90
44117;DHT22;29781;49.480;8.512;2023-08-07T07:36:44;14.30;99.90
44117;DHT22;29781;49.480;8.512;2023-08-07T07:39:10;14.20;99.90
44117;DHT22;29781;49.480;8.512;2023-08-07T07:41:36;14.10;99.90
44117;DHT22;29781;49.480;8.512;2023-08-07T07:44:01;14.10;99.90
44117;DHT22;29781;49.480;8.512;2023-08-07T07:46:27;14.10;99.90
44117;DHT22;29781;49.480;8.512;2023-08-07T07:48:53;14.20;99.90
44117;DHT22;29781;49.480;8.512;2023-08-07T07:51:18;14.30;99.90
44117;DHT22;29781;49.480;8.512;2023-08-07T07:53:44;14.10;99.90
44117;DHT22;29781;49.480;8.512;2023-08-07T07:56:09;14.10;99.90
44117;DHT22;29781;49.480;8.512;2023-08-07T07:58:35;14.00;99.90
44117;DHT22;29781;49.480;8.512;2023-08-07T08:01:01;14.10;99.90
44117;DHT22;29781;49.480;8.512;2023-08-07T08:03:26;14.20;99.90
44117;DHT22;29781;49.480;8.512;2023-08-07T08:05:52;14.20;99.90
44117;DHT22;29781;49.480;8.512;2023-08-07T08:08:18;14.20;99.90
44117;DHT22;29781;49.480;8.512;2023-08-07T08:10:45;14.20;99.90
44117;DHT22;29781;49.480;8.512;2023-08-07T08:13:13;14.20;99.90
44117;DHT22;29781;49.480;8.512;2023-08-07T08:15:39;14.20;99.90
44117;DHT22;29781;49.480;8.512;2023-08-07T08:18:04;14.30;99.90
44117;DHT22;29781;49.480;8.512;2023-08-07T08:20:30;14.20;99.90
44117;DHT22;29781;49.480;8.512;2023-08-07T08:22:56;14.20;99.90
44117;DHT22;29781;49.480;8.512;2023-08-07T08:25:22;14.10;99.90
44117;DHT22;29781;49.480;8.512;2023-08-07T08:27:48;14.20;99.90
44117;DHT22;29781;49.480;8.512;2023-08-07T08:30:13;14.30;99.90
44117;DHT22;29781;49.480;8.512;2023-08-07T08:32:39;14.30;99.90
44117;DHT22;29781;49.480;8.512;2023-08-07T08:35:05;14.40;99.90
44117;DHT22;29781;49.480;8.512;2023-08-07T08:37:31;14.40;99.90
44117;DHT22;29781;49.480;8.512;2023-08-07T08:39:56;14.30;99.90
44117;DHT22;29781;49.480;8.512;2023-08-07T08:42:22;14.40;99.90
44117;DHT22;29781;49.480;8.512;2023-08-07T08:44:55;14.30;99.90
44117;DHT22;29781;49.480;8.512;2023-08-07T08:47:22;14.30;99.90
44117;DHT22;29781;49.480;8.512;2023-08-07T08:49:51;14.20;99.90
44117;DHT22;29781;49.480;8.512;2023-08-07T08:52:20;14.20;99.90
44117;DHT22;29781;49.480;8.512;2023-08-07T08:54:47;14.40;99.90
44117;DHT22;29781;49.480;8.512;2023-08-07T08:57:13;14.40;99.90
44117;DHT22;29781;49.480;8.512;2023-08-07T08:59:41;14.50;99.90
44117;DHT22;29781;49.480;8.512;2023-08-07T09:02:08;14.40;99.90
44117;DHT22;29781;49.480;8.512;2023-08-07T09:04:33;14.60;99.90
44117;DHT22;29781;49.480;8.512;2023-08-07T09:07:00;14.60;99.90
44117;DHT22;29781;49.480;8.512;2023-08-07T09:09:27;14.70;99.90
44117;DHT22;29781;49.480;8.512;2023-08-07T09:11:55;14.70;99.90
44117;DHT22;29781;49.480;8.512;2023-08-07T09:14:26;14.70;99.90
44117;DHT22;29781;49.480;8.512;2023-08-07T09:16:52;14.70;99.90
44117;DHT22;29781;49.480;8.512;2023-08-07T09:19:19;14.90;99.90
44117;DHT22;29781;49.480;8.512;2023-08-07T09:21:44;15.00;99.90
44117;DHT22;29781;49.480;8.512;2023-08-07T09:24:10;15.10;99.90
44117;DHT22;29781;49.480;8.512;2023-08-07T09:26:37;15.10;99.90
44117;DHT22;29781;49.480;8.512;2023-08-07T09:29:04;15.10;99.90
44117;DHT22;29781;49.480;8.512;2023-08-07T09:31:29;15.10;99.90
44117;DHT22;29781;49.480;8.512;2023-08-07T09:34:01;14.90;99.90
44117;DHT22;29781;49.480;8.512;2023-08-07T09:36:31;14.90;99.90
44117;DHT22;29781;49.480;8.512;2023-08-07T09:39:00;14.90;99.90
44117;DHT22;29781;49.480;8.512;2023-08-07T09:41:26;14.90;99.90
44117;DHT22;29781;49.480;8.512;2023-08-07T09:43:53;14.70;99.90
44117;DHT22;29781;49.480;8.512;2023-08-07T09:46:18;14.70;99.90
44117;DHT22;29781;49.480;8.512;2023-08-07T09:48:44;14.60;99.90
44117;DHT22;29781;49.480;8.512;2023-08-07T09:51:10;14.60;99.90
44117;DHT22;29781;49.480;8.512;2023-08-07T09:53:36;14.60;99.90
44117;DHT22;29781;49.480;8.512;2023-08-07T09:56:02;14.70;99.90
44117;DHT22;29781;49.480;8.512;2023-08-07T09:58:29;14.70;99.90
44117;DHT22;29781;49.480;8.512;2023-08-07T10:00:54;14.70;99.90
44117;DHT22;29781;49.480;8.512;2023-08-07T10:03:25;14.60;99.90
44117;DHT22;29781;49.480;8.512;2023-08-07T10:05:51;14.60;99.90
44117;DHT22;29781;49.480;8.512;2023-08-07T10:08:18;14.70;99.90
44117;DHT22;29781;49.480;8.512;2023-08-07T10:10:43;14.60;99.90
44117;DHT22;29781;49.480;8.512;2023-08-07T10:13:11;14.70;99.90
44117;DHT22;29781;49.480;8.512;2023-08-07T10:15:37;14.80;99.90
44117;DHT22;29781;49.480;8.512;2023-08-07T10:18:03;14.80;99.90
44117;DHT22;29781;49.480;8.512;2023-08-07T10:20:30;14.80;99.90
44117;DHT22;29781;49.480;8.512;2023-08-07T10:23:09;14.90;99.90
44117;DHT22;29781;49.480;8.512;2023-08-07T10:25:40;14.90;99.90
44117;DHT22;29781;49.480;8.512;2023-08-07T10:28:09;14.90;99.90
44117;DHT22;29781;49.480;8.512;2023-08-07T10:30:36;14.90;99.90
44117;DHT22;29781;49.480;8.512;2023-08-07T10:33:02;15.00;99.90
44117;DHT22;29781;49.480;8.512;2023-08-07T10:35:32;15.00;99.90
44117;DHT22;29781;49.480;8.512;2023-08-07T10:38:08;15.00;99.90
44117;DHT22;29781;49.480;8.512;2023-08-07T10:40:57;15.10;99.90
44117;DHT22;29781;49.480;8.512;2023-08-07T10:43:20;15.10;99.90
44117;DHT22;29781;49.480;8.512;2023-08-07T10:45:48;15.30;99.90
44117;DHT22;29781;49.480;8.512;2023-08-07T10:48:18;15.30;99.90
44117;DHT22;29781;49.480;8.512;2023-08-07T10:51:03;15.20;99.90
44117;DHT22;29781;49.480;8.512;2023-08-07T10:53:37;15.30;99.90
44117;DHT22;29781;49.480;8.512;2023-08-07T10:56:06;15.30;99.90
44117;DHT22;29781;49.480;8.512;2023-08-07T10:58:37;15.30;99.90
44117;DHT22;29781;49.480;8.512;2023-08-07T11:01:20;15.20;99.90
44117;DHT22;29781;49.480;8.512;2023-08-07T11:03:56;15.10;99.90
44117;DHT22;29781;49.480;8.512;2023-08-07T11:06:24;15.20;99.90
44117;DHT22;29781;49.480;8.512;2023-08-07T11:08:51;15.20;99.90
44117;DHT22;29781;49.480;8.512;2023-08-07T11:11:17;15.30;99.90
44117;DHT22;29781;49.480;8.512;2023-08-07T11:13:43;15.30;99.90
44117;DHT22;29781;49.480;8.512;2023-08-07T11:16:09;15.20;99.90
44117;DHT22;29781;49.480;8.512;2023-08-07T11:18:34;15.20;99.90
44117;DHT22;29781;49.480;8.512;2023-08-07T11:21:07;15.00;99.90
44117;DHT22;29781;49.480;8.512;2023-08-07T11:23:32;15.10;99.90
44117;DHT22;29781;49.480;8.512;2023-08-07T11:25:58;15.10;99.90
44117;DHT22;29781;49.480;8.512;2023-08-07T11:28:24;15.20;99.90
44117;DHT22;29781;49.480;8.512;2023-08-07T11:30:53;15.20;99.90
44117;DHT22;29781;49.480;8.512;2023-08-07T11:33:19;15.20;99.90
44117;DHT22;29781;49.480;8.512;2023-08-07T11:35:45;15.10;99.90
44117;DHT22;29781;49.480;8.512;2023-08-07T11:38:11;15.10;99.90
44117;DHT22;29781;49.480;8.512;2023-08-07T11:40:37;15.00;99.90
44117;DHT22;29781;49.480;8.512;2023-08-07T11:43:03;15.00;99.90
44117;DHT22;29781;49.480;8.512;2023-08-07T11:45:29;15.00;99.90
44117;DHT22;29781;49.480;8.512;2023-08-07T11:47:55;15.10;99.90
44117;DHT22;29781;49.480;8.512;2023-08-07T11:50:22;15.10;99.90
44117;DHT22;29781;49.480;8.512;2023-08-07T11:52:48;15.10;99.90
44117;DHT22;29781;49.480;8.512;2023-08-07T11:55:14;15.20;99.90
44117;DHT22;29781;49.480;8.512;2023-08-07T11:57:40;15.20;99.90
44117;DHT22;29781;49.480;8.512;2023-08-07T12:00:08;15.10;99.90
44117;DHT22;29781;49.480;8.512;2023-08-07T12:02:42;15.20;99.90
44117;DHT22;29781;49.480;8.512;2023-08-07T12:05:09;15.20;99.90
44117;DHT22;29781;49.480;8.512;2023-08-07T12:07:36;15.20;99.90
44117;DHT22;29781;49.480;8.512;2023-08-07T12:10:06;15.10;99.90
44117;DHT22;29781;49.480;8.512;2023-08-07T12:12:38;15.20;99.90
44117;DHT22;29781;49.480;8.512;2023-08-07T12:15:08;15.10;99.90
44117;DHT22;29781;49.480;8.512;2023-08-07T12:17:35;15.10;99.90
44117;DHT22;29781;49.480;8.512;2023-08-07T12:20:00;15.10;99.90
44117;DHT22;29781;49.480;8.512;2023-08-07T12:22:28;15.20;99.90
44117;DHT22;29781;49.480;8.512;2023-08-07T12:24:54;15.30;99.90
44117;DHT22;29781;49.480;8.512;2023-08-07T12:27:19;15.30;99.90
44117;DHT22;29781;49.480;8.512;2023-08-07T12:29:45;15.40;99.90
44117;DHT22;29781;49.480;8.512;2023-08-07T12:32:11;15.40;99.90
44117;DHT22;29781;49.480;8.512;2023-08-07T12:34:36;15.40;99.90
44117;DHT22;29781;49.480;8.512;2023-08-07T12:37:04;15.40;99.90
44117;DHT22;29781;49.480;8.512;2023-08-07T12:39:29;15.40;99.90
44117;DHT22;29781;49.480;8.512;2023-08-07T12:41:55;15.40;99.90
44117;DHT22;29781;49.480;8.512;2023-08-07T12:44:21;15.40;99.90
44117;DHT22;29781;49.480;8.512;2023-08-07T12:46:46;15.40;99.90
44117;DHT22;29781;49.480;8.512;2023-08-07T12:49:12;15.50;99.90
44117;DHT22;29781;49.480;8.512;2023-08-07T12:51:37;15.60;99.90
44117;DHT22;29781;49.480;8.512;2023-08-07T12:54:03;15.60;99.90
44117;DHT22;29781;49.480;8.512;2023-08-07T12:56:29;15.60;99.90
44117;DHT22;29781;49.480;8.512;2023-08-07T12:58:54;15.50;99.90
44117;DHT22;29781;49.480;8.512;2023-08-07T13:01:20;15.30;99.90
44117;DHT22;29781;49.480;8.512;2023-08-07T13:03:45;15.30;99.90
44117;DHT22;29781;49.480;8.512;2023-08-07T13:06:11;15.30;99.90
44117;DHT22;29781;49.480;8.512;2023-08-07T13:08:37;15.50;99.90
44117;DHT22;29781;49.480;8.512;2023-08-07T13:11:03;15.60;99.90
44117;DHT22;29781;49.480;8.512;2023-08-07T13:13:29;15.70;99.90
44117;DHT22;29781;49.480;8.512;2023-08-07T13:15:56;15.60;99.90
44117;DHT22;29781;49.480;8.512;2023-08-07T13:18:21;15.60;99.90
44117;DHT22;29781;49.480;8.512;2023-08-07T13:20:47;15.50;99.90
44117;DHT22;29781;49.480;8.512;2023-08-07T13:23:14;15.60;99.90
44117;DHT22;29781;49.480;8.512;2023-08-07T13:25:40;15.60;99.90
44117;DHT22;29781;49.480;8.512;2023-08-07T13:28:05;15.70;99.90
44117;DHT22;29781;49.480;8.512;2023-08-07T13:30:35;15.80;99.90
44117;DHT22;29781;49.480;8.512;2023-08-07T13:33:01;15.90;99.90
44117;DHT22;29781;49.480;8.512;2023-08-07T13:35:26;16.10;99.90
44117;DHT22;29781;49.480;8.512;2023-08-07T13:37:52;16.10;99.90
44117;DHT22;29781;49.480;8.512;2023-08-07T13:40:17;16.20;99.90
44117;DHT22;29781;49.480;8.512;2023-08-07T13:42:45;16.30;99.90
44117;DHT22;29781;49.480;8.512;2023-08-07T13:45:11;16.30;99.90
44117;DHT22;29781;49.480;8.512;2023-08-07T13:47:37;16.30;99.90
44117;DHT22;29781;49.480;8.512;2023-08-07T13:50:03;16.40;99.90
44117;DHT22;29781;49.480;8.512;2023-08-07T13:52:28;16.40;99.90
44117;DHT22;29781;49.480;8.512;2023-08-07T13:54:54;16.60;99.90
44117;DHT22;29781;49.480;8.512;2023-08-07T13:57:19;16.80;99.90
44117;DHT22;29781;49.480;8.512;2023-08-07T13:59:45;16.90;99.90
44117;DHT22;29781;49.480;8.512;2023-08-07T14:02:11;17.00;99.90
44117;DHT22;29781;49.480;8.512;2023-08-07T14:04:36;17.00;99.90
44117;DHT22;29781;49.480;8.512;2023-08-07T14:07:02;17.10;99.90
44117;DHT22;29781;49.480;8.512;2023-08-07T14:09:29;17.20;99.90
44117;DHT22;29781;49.480;8.512;2023-08-07T14:11:54;17.40;99.90
44117;DHT22;29781;49.480;8.512;2023-08-07T14:14:22;17.50;99.90
44117;DHT22;29781;49.480;8.512;2023-08-07T14:16:47;17.60;99.90
44117;DHT22;29781;49.480;8.512;2023-08-07T14:19:13;17.80;99.90
44117;DHT22;29781;49.480;8.512;2023-08-07T14:21:39;17.90;99.90
44117;DHT22;29781;49.480;8.512;2023-08-07T14:24:05;18.00;99.90
44117;DHT22;29781;49.480;8.512;2023-08-07T14:26:31;18.00;99.90
44117;DHT22;29781;49.480;8.512;2023-08-07T14:28:57;18.10;99.90
44117;DHT22;29781;49.480;8.512;2023-08-07T14:31:22;18.20;99.90
44117;DHT22;29781;49.480;8.512;2023-08-07T14:33:47;18.30;99.90
44117;DHT22;29781;49.480;8.512;2023-08-07T14:36:13;18.40;99.90
44117;DHT22;29781;49.480;8.512;2023-08-07T14:38:40;18.40;99.90
44117;DHT22;29781;49.480;8.512;2023-08-07T14:41:05;18.50;99.90
44117;DHT22;29781;49.480;8.512;2023-08-07T14:43:31;18.60;99.90
44117;DHT22;29781;49.480;8.512;2023-08-07T14:45:57;18.60;99.90
44117;DHT22;29781;49.480;8.512;2023-08-07T14:48:23;18.70;99.90
44117;DHT22;29781;49.480;8.512;2023-08-07T14:50:48;18.70;99.90
44117;DHT22;29781;49.480;8.512;2023-08-07T14:53:14;18.70;99.90
44117;DHT22;29781;49.480;8.512;2023-08-07T14:55:40;18.70;99.90
44117;DHT22;29781;49.480;8.512;2023-08-07T14:58:07;18.90;99.90
44117;DHT22;29781;49.480;8.512;2023-08-07T15:00:32;18.90;99.90
44117;DHT22;29781;49.480;8.512;2023-08-07T15:02:58;18.80;99.90
44117;DHT22;29781;49.480;8.512;2023-08-07T15:05:23;18.70;99.90
44117;DHT22;29781;49.480;8.512;2023-08-07T15:07:49;18.70;99.90
44117;DHT22;29781;49.480;8.512;2023-08-07T15:10:14;18.70;99.90
44117;DHT22;29781;49.480;8.512;2023-08-07T15:12:40;18.80;99.90
44117;DHT22;29781;49.480;8.512;2023-08-07T15:15:05;18.90;99.90
44117;DHT22;29781;49.480;8.512;2023-08-07T15:17:32;19.10;99.90
44117;DHT22;29781;49.480;8.512;2023-08-07T15:19:57;19.10;99.90
44117;DHT22;29781;49.480;8.512;2023-08-07T15:22:23;19.10;99.90
44117;DHT22;29781;49.480;8.512;2023-08-07T15:24:48;19.00;99.90
44117;DHT22;29781;49.480;8.512;2023-08-07T15:27:14;19.00;99.90